sensor_id;sensor_type;location;lat;lon;timestamp;pressure;altitude;pressure_sealevel;temperature;humidity
49843;BME280;55559;48.898;9.184;2023-02-10T00:02:05;100312.16;;;-3.47;100.00
49843;BME280;55559;48.898;9.184;2023-02-10T00:04:33;100312.16;;;-3.44;100.00
49843;BME280;55559;48.898;9.184;2023-02-10T00:07:00;100307.78;;;-3.39;100.00
49843;BME280;55559;48.898;9.184;2023-02-10T00:09:28;100309.50;;;-3.38;100.00
49843;BME280;55559;48.898;9.184;2023-02-10T00:11:55;100306.91;;;-3.38;100.00
49843;BME280;55559;48.898;9.184;2023-02-10T00:14:29;100306.91;;;-3.36;100.00
49843;BME280;55559;48.898;9.184;2023-02-10T00:16:57;100309.53;;;-3.42;100.00
49843;BME280;55559;48.898;9.184;2023-02-10T00:19:27;100314.75;;;-3.44;100.00
49843;BME280;55559;48.898;9.184;2023-02-10T00:21:55;100318.19;;;-3.52;100.00
49843;BME280;55559;48.898;9.184;2023-02-10T00:24:22;100311.28;;;-3.57;100.00
49843;BME280;55559;48.898;9.184;2023-02-10T00:26:51;100323.44;;;-3.63;100.00
49843;BME280;55559;48.898;9.184;2023-02-10T00:29:18;100323.44;;;-3.63;100.00
49843;BME280;55559;48.898;9.184;2023-02-10T00:31:46;100318.22;;;-3.59;100.00
49843;BME280;55559;48.898;9.184;2023-02-10T00:34:15;100311.25;;;-3.46;100.00
49843;BME280;55559;48.898;9.184;2023-02-10T00:36:48;100320.81;;;-3.49;100.00
49843;BME280;55559;48.898;9.184;2023-02-10T00:39:17;100319.94;;;-3.50;100.00
49843;BME280;55559;48.898;9.184;2023-02-10T00:41:44;100330.34;;;-3.56;100.00
49843;BME280;55559;48.898;9.184;2023-02-10T00:44:12;100320.84;;;-3.56;100.00
49843;BME280;55559;48.898;9.184;2023-02-10T00:46:39;100332.94;;;-3.58;100.00
49843;BME280;55559;48.898;9.184;2023-02-10T00:49:09;100328.63;;;-3.57;100.00
49843;BME280;55559;48.898;9.184;2023-02-10T00:51:37;100335.56;;;-3.64;100.00
49843;BME280;55559;48.898;9.184;2023-02-10T00:54:06;100331.22;;;-3.62;100.00
49843;BME280;55559;48.898;9.184;2023-02-10T00:56:33;100327.78;;;-3.73;100.00
49843;BME280;55559;48.898;9.184;2023-02-10T00:59:01;100332.97;;;-3.68;100.00
49843;BME280;55559;48.898;9.184;2023-02-10T01:01:30;100334.69;;;-3.80;100.00
49843;BME280;55559;48.898;9.184;2023-02-10T01:03:59;100329.50;;;-3.80;100.00
49843;BME280;55559;48.898;9.184;2023-02-10T01:06:27;100333.00;;;-3.78;100.00
49843;BME280;55559;48.898;9.184;2023-02-10T01:08:54;100337.34;;;-3.83;100.00
49843;BME280;55559;48.898;9.184;2023-02-10T01:11:23;100337.31;;;-3.90;100.00
49843;BME280;55559;48.898;9.184;2023-02-10T01:13:51;100337.31;;;-3.86;100.00
49843;BME280;55559;48.898;9.184;2023-02-10T01:16:20;100339.03;;;-3.85;100.00
49843;BME280;55559;48.898;9.184;2023-02-10T01:18:47;100339.03;;;-3.82;100.00
49843;BME280;55559;48.898;9.184;2023-02-10T01:21:16;100346.00;;;-3.79;100.00
49843;BME280;55559;48.898;9.184;2023-02-10T01:23:44;100352.03;;;-3.83;100.00
49843;BME280;55559;48.898;9.184;2023-02-10T01:26:12;100349.44;;;-3.93;100.00
49843;BME280;55559;48.898;9.184;2023-02-10T01:28:42;100347.72;;;-3.94;100.00
49843;BME280;55559;48.898;9.184;2023-02-10T01:31:12;100348.56;;;-3.93;100.00
49843;BME280;55559;48.898;9.184;2023-02-10T01:33:40;100344.25;;;-3.94;100.00
49843;BME280;55559;48.898;9.184;2023-02-10T01:36:10;100345.13;;;-3.92;100.00
49843;BME280;55559;48.898;9.184;2023-02-10T01:38:38;100345.97;;;-3.93;100.00
49843;BME280;55559;48.898;9.184;2023-02-10T01:41:06;100345.13;;;-3.87;100.00
49843;BME280;55559;48.898;9.184;2023-02-10T01:43:54;100352.91;;;-3.92;100.00
49843;BME280;55559;48.898;9.184;2023-02-10T01:46:22;100352.91;;;-3.95;100.00
49843;BME280;55559;48.898;9.184;2023-02-10T01:48:50;100357.22;;;-3.99;100.00
49843;BME280;55559;48.898;9.184;2023-02-10T01:51:20;100354.63;;;-4.11;100.00
49843;BME280;55559;48.898;9.184;2023-02-10T01:53:50;100352.88;;;-4.14;100.00
49843;BME280;55559;48.898;9.184;2023-02-10T01:56:18;100356.34;;;-4.10;100.00
49843;BME280;55559;48.898;9.184;2023-02-10T01:58:46;100358.97;;;-4.15;100.00
49843;BME280;55559;48.898;9.184;2023-02-10T02:01:16;100365.00;;;-4.28;100.00
49843;BME280;55559;48.898;9.184;2023-02-10T02:03:44;100365.00;;;-4.31;100.00
49843;BME280;55559;48.898;9.184;2023-02-10T02:06:11;100368.44;;;-4.40;100.00
49843;BME280;55559;48.898;9.184;2023-02-10T02:08:39;100370.16;;;-4.43;100.00
49843;BME280;55559;48.898;9.184;2023-02-10T02:11:16;100373.59;;;-4.51;100.00
49843;BME280;55559;48.898;9.184;2023-02-10T02:13:59;100373.59;;;-4.51;100.00
49843;BME280;55559;48.898;9.184;2023-02-10T02:20:04;100389.94;;;-4.76;100.00
49843;BME280;55559;48.898;9.184;2023-02-10T02:23:22;100391.63;;;-4.83;100.00
49843;BME280;55559;48.898;9.184;2023-02-10T02:26:17;100392.50;;;-4.82;100.00
49843;BME280;55559;48.898;9.184;2023-02-10T02:29:05;100396.81;;;-4.86;100.00
49843;BME280;55559;48.898;9.184;2023-02-10T02:31:52;100394.22;;;-4.84;100.00
49843;BME280;55559;48.898;9.184;2023-02-10T02:34:30;100403.69;;;-4.91;100.00
49843;BME280;55559;48.898;9.184;2023-02-10T02:37:03;100407.19;;;-4.91;100.00
49843;BME280;55559;48.898;9.184;2023-02-10T02:39:33;100403.69;;;-4.93;100.00
49843;BME280;55559;48.898;9.184;2023-02-10T02:42:18;100399.34;;;-4.97;100.00
49843;BME280;55559;48.898;9.184;2023-02-10T02:44:48;100401.97;;;-4.94;100.00
49843;BME280;55559;48.898;9.184;2023-02-10T02:47:28;100391.63;;;-4.86;100.00
49843;BME280;55559;48.898;9.184;2023-02-10T02:50:11;100394.22;;;-4.91;100.00
49843;BME280;55559;48.898;9.184;2023-02-10T02:52:54;100393.31;;;-4.94;100.00
49843;BME280;55559;48.898;9.184;2023-02-10T02:55:35;100402.00;;;-4.86;100.00
49843;BME280;55559;48.898;9.184;2023-02-10T02:58:12;100394.22;;;-4.83;100.00
49843;BME280;55559;48.898;9.184;2023-02-10T03:00:44;100400.25;;;-4.93;100.00
49843;BME280;55559;48.898;9.184;2023-02-10T03:03:15;100398.50;;;-4.97;100.00
49843;BME280;55559;48.898;9.184;2023-02-10T03:05:44;100397.63;;;-4.95;100.00
49843;BME280;55559;48.898;9.184;2023-02-10T03:08:11;100400.28;;;-4.86;100.00
49843;BME280;55559;48.898;9.184;2023-02-10T03:10:39;100397.69;;;-4.82;100.00
49843;BME280;55559;48.898;9.184;2023-02-10T03:13:06;100389.97;;;-4.70;100.00
49843;BME280;55559;48.898;9.184;2023-02-10T03:15:34;100398.66;;;-4.63;100.00
49843;BME280;55559;48.898;9.184;2023-02-10T03:18:01;100395.22;;;-4.55;100.00
49843;BME280;55559;48.898;9.184;2023-02-10T03:20:30;100392.66;;;-4.50;100.00
49843;BME280;55559;48.898;9.184;2023-02-10T03:22:58;100397.00;;;-4.41;100.00
49843;BME280;55559;48.898;9.184;2023-02-10T03:25:25;100392.66;;;-4.49;100.00
49843;BME280;55559;48.898;9.184;2023-02-10T03:27:53;100399.56;;;-4.46;100.00
49843;BME280;55559;48.898;9.184;2023-02-10T03:30:21;100405.63;;;-4.50;100.00
49843;BME280;55559;48.898;9.184;2023-02-10T03:32:48;100401.25;;;-4.57;100.00
49843;BME280;55559;48.898;9.184;2023-02-10T03:35:17;100409.91;;;-4.63;100.00
49843;BME280;55559;48.898;9.184;2023-02-10T03:37:46;100407.25;;;-4.77;100.00
49843;BME280;55559;48.898;9.184;2023-02-10T03:40:14;100409.84;;;-4.78;100.00
49843;BME280;55559;48.898;9.184;2023-02-10T03:42:41;100422.78;;;-4.83;100.00
49843;BME280;55559;48.898;9.184;2023-02-10T03:45:09;100421.06;;;-4.79;100.00
49843;BME280;55559;48.898;9.184;2023-02-10T03:47:36;100417.56;;;-4.84;100.00
49843;BME280;55559;48.898;9.184;2023-02-10T03:50:04;100427.94;;;-4.86;100.00
49843;BME280;55559;48.898;9.184;2023-02-10T03:52:31;100422.75;;;-4.88;100.00
49843;BME280;55559;48.898;9.184;2023-02-10T03:55:00;100421.06;;;-4.78;100.00
49843;BME280;55559;48.898;9.184;2023-02-10T03:57:27;100419.38;;;-4.73;100.00
49843;BME280;55559;48.898;9.184;2023-02-10T03:59:55;100428.00;;;-4.72;100.00
49843;BME280;55559;48.898;9.184;2023-02-10T04:02:22;100422.03;;;-4.63;100.00
49843;BME280;55559;48.898;9.184;2023-02-10T04:04:50;100420.22;;;-4.75;100.00
49843;BME280;55559;48.898;9.184;2023-02-10T04:07:17;100422.81;;;-4.75;100.00
49843;BME280;55559;48.898;9.184;2023-02-10T04:09:45;100428.84;;;-4.78;100.00
49843;BME280;55559;48.898;9.184;2023-02-10T04:12:13;100423.66;;;-4.81;100.00
49843;BME280;55559;48.898;9.184;2023-02-10T04:14:41;100425.34;;;-4.88;100.00
49843;BME280;55559;48.898;9.184;2023-02-10T04:17:08;100422.72;;;-4.94;100.00
49843;BME280;55559;48.898;9.184;2023-02-10T04:19:36;100418.38;;;-4.95;100.00
49843;BME280;55559;48.898;9.184;2023-02-10T04:22:04;100427.09;;;-4.87;100.00
49843;BME280;55559;48.898;9.184;2023-02-10T04:24:31;100428.84;;;-4.86;100.00
49843;BME280;55559;48.898;9.184;2023-02-10T04:26:58;100427.97;;;-4.81;100.00
49843;BME280;55559;48.898;9.184;2023-02-10T04:29:27;100440.06;;;-4.87;100.00
49843;BME280;55559;48.898;9.184;2023-02-10T04:31:55;100427.06;;;-4.90;100.00
49843;BME280;55559;48.898;9.184;2023-02-10T04:34:22;100427.09;;;-4.87;100.00
49843;BME280;55559;48.898;9.184;2023-02-10T04:36:50;100428.88;;;-4.76;100.00
49843;BME280;55559;48.898;9.184;2023-02-10T04:39:17;100426.25;;;-4.79;100.00
49843;BME280;55559;48.898;9.184;2023-02-10T04:41:45;100436.66;;;-4.76;100.00
49843;BME280;55559;48.898;9.184;2023-02-10T04:44:12;100441.00;;;-4.69;100.00
49843;BME280;55559;48.898;9.184;2023-02-10T04:46:41;100431.53;;;-4.67;100.00
49843;BME280;55559;48.898;9.184;2023-02-10T04:49:08;100436.72;;;-4.59;100.00
49843;BME280;55559;48.898;9.184;2023-02-10T04:51:36;100435.00;;;-4.57;100.00
49843;BME280;55559;48.898;9.184;2023-02-10T04:54:03;100436.75;;;-4.55;100.00
49843;BME280;55559;48.898;9.184;2023-02-10T04:56:31;100438.50;;;-4.57;100.00
49843;BME280;55559;48.898;9.184;2023-02-10T04:58:58;100444.59;;;-4.42;100.00
49843;BME280;55559;48.898;9.184;2023-02-10T05:01:26;100442.84;;;-4.48;100.00
49843;BME280;55559;48.898;9.184;2023-02-10T05:03:55;100442.84;;;-4.42;100.00
49843;BME280;55559;48.898;9.184;2023-02-10T05:06:22;100451.50;;;-4.46;100.00
49843;BME280;55559;48.898;9.184;2023-02-10T05:08:49;100449.78;;;-4.50;100.00
49843;BME280;55559;48.898;9.184;2023-02-10T05:11:17;100445.41;;;-4.56;100.00
49843;BME280;55559;48.898;9.184;2023-02-10T05:13:45;100457.44;;;-4.72;100.00
49843;BME280;55559;48.898;9.184;2023-02-10T05:16:13;100454.75;;;-4.90;100.00
49843;BME280;55559;48.898;9.184;2023-02-10T05:18:42;100453.78;;;-5.05;100.00
49843;BME280;55559;48.898;9.184;2023-02-10T05:21:12;100447.59;;;-5.27;100.00
49843;BME280;55559;48.898;9.184;2023-02-10T05:23:41;100457.88;;;-5.39;100.00
49843;BME280;55559;48.898;9.184;2023-02-10T05:26:10;100466.47;;;-5.46;100.00
49843;BME280;55559;48.898;9.184;2023-02-10T05:28:38;100464.72;;;-5.47;100.00
49843;BME280;55559;48.898;9.184;2023-02-10T05:31:05;100462.13;;;-5.47;100.00
49843;BME280;55559;48.898;9.184;2023-02-10T05:33:34;100463.06;;;-5.39;100.00
49843;BME280;55559;48.898;9.184;2023-02-10T05:36:01;100467.38;;;-5.36;100.00
49843;BME280;55559;48.898;9.184;2023-02-10T05:38:31;100476.09;;;-5.33;100.00
49843;BME280;55559;48.898;9.184;2023-02-10T05:40:58;100476.09;;;-5.28;100.00
49843;BME280;55559;48.898;9.184;2023-02-10T05:43:26;100478.78;;;-5.19;100.00
49843;BME280;55559;48.898;9.184;2023-02-10T05:45:53;100480.41;;;-5.30;100.00
49843;BME280;55559;48.898;9.184;2023-02-10T05:48:21;100484.72;;;-5.32;100.00
49843;BME280;55559;48.898;9.184;2023-02-10T05:50:50;100483.75;;;-5.42;100.00
49843;BME280;55559;48.898;9.184;2023-02-10T05:53:18;100480.31;;;-5.43;100.00
49843;BME280;55559;48.898;9.184;2023-02-10T05:55:47;100481.13;;;-5.51;100.00
49843;BME280;55559;48.898;9.184;2023-02-10T05:58:14;100487.97;;;-5.53;100.00
49843;BME280;55559;48.898;9.184;2023-02-10T06:00:42;100484.47;;;-5.60;100.00
49843;BME280;55559;48.898;9.184;2023-02-10T06:03:09;100490.50;;;-5.63;100.00
49843;BME280;55559;48.898;9.184;2023-02-10T06:05:36;100494.75;;;-5.69;100.00
49843;BME280;55559;48.898;9.184;2023-02-10T06:08:05;100498.19;;;-5.70;100.00
49843;BME280;55559;48.898;9.184;2023-02-10T06:10:32;100511.16;;;-5.69;100.00
49843;BME280;55559;48.898;9.184;2023-02-10T06:13:01;100519.78;;;-5.73;100.00
49843;BME280;55559;48.898;9.184;2023-02-10T06:15:28;100522.28;;;-5.79;100.00
49843;BME280;55559;48.898;9.184;2023-02-10T06:17:56;100525.75;;;-5.80;100.00
49843;BME280;55559;48.898;9.184;2023-02-10T06:20:23;100525.75;;;-5.80;100.00
49843;BME280;55559;48.898;9.184;2023-02-10T06:22:51;100528.28;;;-5.86;100.00
49843;BME280;55559;48.898;9.184;2023-02-10T06:25:18;100528.28;;;-5.86;100.00
49843;BME280;55559;48.898;9.184;2023-02-10T06:27:45;100532.50;;;-5.94;100.00
49843;BME280;55559;48.898;9.184;2023-02-10T06:30:15;100542.22;;;-5.73;100.00
49843;BME280;55559;48.898;9.184;2023-02-10T06:32:42;100534.63;;;-5.58;100.00
49843;BME280;55559;48.898;9.184;2023-02-10T06:35:10;100532.06;;;-5.52;100.00
49843;BME280;55559;48.898;9.184;2023-02-10T06:37:37;100534.75;;;-5.44;100.00
49843;BME280;55559;48.898;9.184;2023-02-10T06:40:06;100539.06;;;-5.43;100.00
49843;BME280;55559;48.898;9.184;2023-02-10T06:42:33;100544.19;;;-5.51;100.00
49843;BME280;55559;48.898;9.184;2023-02-10T06:45:01;100545.09;;;-5.47;100.00
49843;BME280;55559;48.898;9.184;2023-02-10T06:47:30;100551.13;;;-5.47;100.00
49843;BME280;55559;48.898;9.184;2023-02-10T06:49:57;100554.63;;;-5.42;100.00
49843;BME280;55559;48.898;9.184;2023-02-10T06:52:24;100558.13;;;-5.38;100.00
49843;BME280;55559;48.898;9.184;2023-02-10T06:54:52;100557.28;;;-5.37;100.00
49843;BME280;55559;48.898;9.184;2023-02-10T06:57:19;100564.22;;;-5.34;100.00
49843;BME280;55559;48.898;9.184;2023-02-10T06:59:47;100565.16;;;-5.28;100.00
49843;BME280;55559;48.898;9.184;2023-02-10T07:02:14;100574.63;;;-5.28;100.00
49843;BME280;55559;48.898;9.184;2023-02-10T07:04:43;100565.13;;;-5.31;100.00
49843;BME280;55559;48.898;9.184;2023-02-10T07:07:11;100571.16;;;-5.32;100.00
49843;BME280;55559;48.898;9.184;2023-02-10T07:09:38;100566.91;;;-5.22;100.00
49843;BME280;55559;48.898;9.184;2023-02-10T07:12:06;100568.69;;;-5.21;100.00
49843;BME280;55559;48.898;9.184;2023-02-10T07:14:33;100563.53;;;-5.15;100.00
49843;BME280;55559;48.898;9.184;2023-02-10T07:17:01;100558.41;;;-5.09;100.00
49843;BME280;55559;48.898;9.184;2023-02-10T07:19:29;100558.53;;;-4.92;100.00
49843;BME280;55559;48.898;9.184;2023-02-10T07:21:59;100557.78;;;-4.78;100.00
49843;BME280;55559;48.898;9.184;2023-02-10T07:24:30;100565.63;;;-4.66;100.00
49843;BME280;55559;48.898;9.184;2023-02-10T07:26:58;100568.34;;;-4.47;100.00
49843;BME280;55559;48.898;9.184;2023-02-10T07:29:25;100560.63;;;-4.37;100.00
49843;BME280;55559;48.898;9.184;2023-02-10T07:31:52;100569.38;;;-4.19;100.00
49843;BME280;55559;48.898;9.184;2023-02-10T07:34:20;100570.28;;;-4.05;100.00
49843;BME280;55559;48.898;9.184;2023-02-10T07:36:48;100565.13;;;-3.97;100.00
49843;BME280;55559;48.898;9.184;2023-02-10T07:39:21;100566.91;;;-3.87;100.00
49843;BME280;55559;48.898;9.184;2023-02-10T07:41:49;100572.13;;;-3.75;100.00
49843;BME280;55559;48.898;9.184;2023-02-10T07:44:19;100567.81;;;-3.69;100.00
49843;BME280;55559;48.898;9.184;2023-02-10T07:46:48;100560.03;;;-3.69;100.00
49843;BME280;55559;48.898;9.184;2023-02-10T07:49:15;100561.78;;;-3.62;100.00
49843;BME280;55559;48.898;9.184;2023-02-10T07:51:43;100553.09;;;-3.61;100.00
49843;BME280;55559;48.898;9.184;2023-02-10T07:54:10;100547.09;;;-3.54;100.00
49843;BME280;55559;48.898;9.184;2023-02-10T07:56:39;100551.41;;;-3.51;100.00
49843;BME280;55559;48.898;9.184;2023-02-10T07:59:07;100553.16;;;-3.44;100.00
49843;BME280;55559;48.898;9.184;2023-02-10T08:01:34;100550.53;;;-3.46;100.00
49843;BME280;55559;48.898;9.184;2023-02-10T08:04:07;100555.75;;;-3.40;100.00
49843;BME280;55559;48.898;9.184;2023-02-10T08:06:35;100555.78;;;-3.33;100.00
49843;BME280;55559;48.898;9.184;2023-02-10T08:09:03;100553.19;;;-3.29;100.00
49843;BME280;55559;48.898;9.184;2023-02-10T08:11:31;100555.78;;;-3.24;100.00
49843;BME280;55559;48.898;9.184;2023-02-10T08:14:00;100549.72;;;-3.25;100.00
49843;BME280;55559;48.898;9.184;2023-02-10T08:16:28;100553.19;;;-3.15;100.00
49843;BME280;55559;48.898;9.184;2023-02-10T08:18:57;100561.84;;;-3.16;100.00
49843;BME280;55559;48.898;9.184;2023-02-10T08:21:24;100566.22;;;-3.16;100.00
49843;BME280;55559;48.898;9.184;2023-02-10T08:23:52;100564.47;;;-3.11;100.00
49843;BME280;55559;48.898;9.184;2023-02-10T08:26:22;100561.00;;;-3.03;100.00
49843;BME280;55559;48.898;9.184;2023-02-10T08:28:51;100564.47;;;-2.97;100.00
49843;BME280;55559;48.898;9.184;2023-02-10T08:31:22;100568.81;;;-2.87;100.00
49843;BME280;55559;48.898;9.184;2023-02-10T08:33:49;100564.47;;;-2.81;100.00
49843;BME280;55559;48.898;9.184;2023-02-10T08:36:18;100564.47;;;-2.71;100.00
49843;BME280;55559;48.898;9.184;2023-02-10T08:38:47;100565.34;;;-2.66;100.00
49843;BME280;55559;48.898;9.184;2023-02-10T08:41:15;100567.91;;;-2.52;100.00
49843;BME280;55559;48.898;9.184;2023-02-10T08:43:44;100561.81;;;-2.39;100.00
49843;BME280;55559;48.898;9.184;2023-02-10T08:46:12;100561.78;;;-2.31;100.00
49843;BME280;55559;48.898;9.184;2023-02-10T08:48:41;100566.13;;;-2.32;100.00
49843;BME280;55559;48.898;9.184;2023-02-10T08:51:10;100564.38;;;-2.30;100.00
49843;BME280;55559;48.898;9.184;2023-02-10T08:53:38;100565.22;;;-2.25;100.00
49843;BME280;55559;48.898;9.184;2023-02-10T08:56:08;100560.00;;;-2.17;100.00
49843;BME280;55559;48.898;9.184;2023-02-10T08:58:36;100559.09;;;-2.08;100.00
49843;BME280;55559;48.898;9.184;2023-02-10T09:01:09;100556.47;;;-1.99;100.00
49843;BME280;55559;48.898;9.184;2023-02-10T09:03:37;100559.03;;;-1.90;100.00
49843;BME280;55559;48.898;9.184;2023-02-10T09:06:06;100562.47;;;-1.78;100.00
49843;BME280;55559;48.898;9.184;2023-02-10T09:08:38;100565.00;;;-1.71;100.00
49843;BME280;55559;48.898;9.184;2023-02-10T09:11:07;100566.69;;;-1.57;100.00
49843;BME280;55559;48.898;9.184;2023-02-10T09:13:35;100567.50;;;-1.43;100.00
49843;BME280;55559;48.898;9.184;2023-02-10T09:16:03;100566.56;;;-1.34;100.00
49843;BME280;55559;48.898;9.184;2023-02-10T09:18:30;100569.16;;;-1.31;100.00
49843;BME280;55559;48.898;9.184;2023-02-10T09:20:58;100577.81;;;-1.23;100.00
49843;BME280;55559;48.898;9.184;2023-02-10T09:23:27;100578.63;;;-1.15;100.00
49843;BME280;55559;48.898;9.184;2023-02-10T09:25:56;100579.34;;;-0.94;100.00
49843;BME280;55559;48.898;9.184;2023-02-10T09:28:23;100581.78;;;-0.74;100.00
49843;BME280;55559;48.898;9.184;2023-02-10T09:30:51;100571.31;;;-0.72;100.00
49843;BME280;55559;48.898;9.184;2023-02-10T09:33:19;100573.03;;;-0.70;100.00
49843;BME280;55559;48.898;9.184;2023-02-10T09:35:46;100568.59;;;-0.62;100.00
49843;BME280;55559;48.898;9.184;2023-02-10T09:38:14;100572.81;;;-0.48;100.00
49843;BME280;55559;48.898;9.184;2023-02-10T09:40:50;100562.09;;;-0.22;100.00
49843;BME280;55559;48.898;9.184;2023-02-10T09:43:27;100562.16;;;-0.25;100.00
49843;BME280;55559;48.898;9.184;2023-02-10T09:46:01;100562.91;;;-0.17;100.00
49843;BME280;55559;48.898;9.184;2023-02-10T09:48:39;100553.19;;;-0.07;100.00
49843;BME280;55559;48.898;9.184;2023-02-10T09:51:15;100547.94;;;-0.03;100.00
49843;BME280;55559;48.898;9.184;2023-02-10T09:53:47;100552.13;;;0.11;100.00
49843;BME280;55559;48.898;9.184;2023-02-10T09:56:19;100555.41;;;0.25;100.00
49843;BME280;55559;48.898;9.184;2023-02-10T09:58:48;100557.88;;;0.39;100.00
49843;BME280;55559;48.898;9.184;2023-02-10T10:01:21;100562.09;;;0.49;100.00
49843;BME280;55559;48.898;9.184;2023-02-10T10:03:54;100557.53;;;0.62;100.00
49843;BME280;55559;48.898;9.184;2023-02-10T10:06:26;100559.13;;;0.72;100.00
49843;BME280;55559;48.898;9.184;2023-02-10T10:09:00;100556.28;;;0.89;100.00
49843;BME280;55559;48.898;9.184;2023-02-10T10:11:36;100558.53;;;1.09;100.00
49843;BME280;55559;48.898;9.184;2023-02-10T10:14:08;100567.13;;;1.18;100.00
49843;BME280;55559;48.898;9.184;2023-02-10T10:16:59;100571.41;;;1.25;100.00
49843;BME280;55559;48.898;9.184;2023-02-10T10:19:38;100567.75;;;1.34;100.00
49843;BME280;55559;48.898;9.184;2023-02-10T10:22:23;100569.19;;;1.52;100.00
49843;BME280;55559;48.898;9.184;2023-02-10T10:25:10;100570.88;;;1.56;100.00
49843;BME280;55559;48.898;9.184;2023-02-10T10:27:50;100577.72;;;1.63;100.00
49843;BME280;55559;48.898;9.184;2023-02-10T10:30:23;100565.22;;;1.79;100.00
49843;BME280;55559;48.898;9.184;2023-02-10T10:32:56;100566.78;;;1.88;100.00
49843;BME280;55559;48.898;9.184;2023-02-10T10:35:28;100569.00;;;2.08;100.00
49843;BME280;55559;48.898;9.184;2023-02-10T10:37:59;100570.56;;;2.16;100.00
49843;BME280;55559;48.898;9.184;2023-02-10T10:40:29;100571.00;;;2.37;100.00
49843;BME280;55559;48.898;9.184;2023-02-10T10:43:00;100562.13;;;2.42;100.00
49843;BME280;55559;48.898;9.184;2023-02-10T10:45:31;100560.06;;;2.58;100.00
49843;BME280;55559;48.898;9.184;2023-02-10T10:48:05;100561.97;;;2.89;100.00
49843;BME280;55559;48.898;9.184;2023-02-10T10:50:34;100556.06;;;2.79;100.00
49843;BME280;55559;48.898;9.184;2023-02-10T10:53:11;100550.31;;;3.00;100.00
49843;BME280;55559;48.898;9.184;2023-02-10T10:55:43;100542.00;;;3.16;100.00
49843;BME280;55559;48.898;9.184;2023-02-10T10:58:23;100549.63;;;3.29;100.00
49843;BME280;55559;48.898;9.184;2023-02-10T11:00:54;100554.69;;;3.01;94.51
49843;BME280;55559;48.898;9.184;2023-02-10T11:03:22;100545.47;;;3.19;94.80
49843;BME280;55559;48.898;9.184;2023-02-10T11:05:59;100546.34;;;3.19;92.64
49843;BME280;55559;48.898;9.184;2023-02-10T11:08:29;100541.72;;;3.62;100.00
49843;BME280;55559;48.898;9.184;2023-02-10T11:11:01;100546.41;;;3.83;97.77
49843;BME280;55559;48.898;9.184;2023-02-10T11:13:32;100539.97;;;3.94;97.83
49843;BME280;55559;48.898;9.184;2023-02-10T11:16:02;100540.66;;;4.00;88.26
49843;BME280;55559;48.898;9.184;2023-02-10T11:18:31;100535.59;;;3.92;83.15
49843;BME280;55559;48.898;9.184;2023-02-10T11:21:01;100548.44;;;3.73;82.64
49843;BME280;55559;48.898;9.184;2023-02-10T11:23:29;100541.78;;;3.91;77.59
49843;BME280;55559;48.898;9.184;2023-02-10T11:26:01;100542.94;;;4.13;76.02
49843;BME280;55559;48.898;9.184;2023-02-10T11:28:32;100541.59;;;3.98;71.38
49843;BME280;55559;48.898;9.184;2023-02-10T11:31:03;100539.13;;;4.23;73.73
49843;BME280;55559;48.898;9.184;2023-02-10T11:33:33;100535.97;;;4.40;74.52
49843;BME280;55559;48.898;9.184;2023-02-10T11:36:04;100548.75;;;4.24;72.70
49843;BME280;55559;48.898;9.184;2023-02-10T11:38:33;100533.44;;;4.37;71.08
49843;BME280;55559;48.898;9.184;2023-02-10T11:41:03;100528.56;;;4.53;74.35
49843;BME280;55559;48.898;9.184;2023-02-10T11:43:41;100539.63;;;4.36;73.57
49843;BME280;55559;48.898;9.184;2023-02-10T11:46:17;100534.97;;;4.45;72.91
49843;BME280;55559;48.898;9.184;2023-02-10T11:48:53;100533.50;;;4.63;72.59
49843;BME280;55559;48.898;9.184;2023-02-10T11:51:21;100529.38;;;4.83;71.49
49843;BME280;55559;48.898;9.184;2023-02-10T11:53:49;100524.41;;;4.74;70.84
49843;BME280;55559;48.898;9.184;2023-02-10T11:56:20;100524.25;;;4.78;71.54
49843;BME280;55559;48.898;9.184;2023-02-10T11:59:27;100524.06;;;4.84;72.59
49843;BME280;55559;48.898;9.184;2023-02-10T12:01:58;100520.94;;;5.00;72.84
49843;BME280;55559;48.898;9.184;2023-02-10T12:04:49;100521.56;;;4.23;75.13
49843;BME280;55559;48.898;9.184;2023-02-10T12:07:25;100513.94;;;4.72;75.36
49843;BME280;55559;48.898;9.184;2023-02-10T12:10:02;100499.88;;;4.72;72.25
49843;BME280;55559;48.898;9.184;2023-02-10T12:12:36;100508.78;;;4.68;72.91
49843;BME280;55559;48.898;9.184;2023-02-10T12:15:16;100506.31;;;4.63;72.92
49843;BME280;55559;48.898;9.184;2023-02-10T12:17:55;100502.94;;;4.58;72.50
49843;BME280;55559;48.898;9.184;2023-02-10T12:20:39;100502.47;;;5.00;72.89
49843;BME280;55559;48.898;9.184;2023-02-10T12:23:40;100502.84;;;5.14;71.56
49843;BME280;55559;48.898;9.184;2023-02-10T12:26:18;100500.63;;;5.02;68.67
49843;BME280;55559;48.898;9.184;2023-02-10T12:28:59;100499.31;;;4.89;65.97
49843;BME280;55559;48.898;9.184;2023-02-10T12:31:39;100495.25;;;4.78;64.36
49843;BME280;55559;48.898;9.184;2023-02-10T12:34:29;100481.31;;;4.75;64.52
49843;BME280;55559;48.898;9.184;2023-02-10T12:37:11;100487.81;;;4.91;65.25
49843;BME280;55559;48.898;9.184;2023-02-10T12:39:45;100479.34;;;4.81;64.22
49843;BME280;55559;48.898;9.184;2023-02-10T12:42:32;100478.78;;;4.98;63.90
49843;BME280;55559;48.898;9.184;2023-02-10T12:45:10;100479.13;;;4.89;65.44
49843;BME280;55559;48.898;9.184;2023-02-10T12:47:48;100470.63;;;4.79;64.75
49843;BME280;55559;48.898;9.184;2023-02-10T12:50:34;100466.34;;;5.02;61.92
49843;BME280;55559;48.898;9.184;2023-02-10T12:53:10;100468.91;;;4.78;60.79
49843;BME280;55559;48.898;9.184;2023-02-10T12:55:44;100470.72;;;4.76;61.23
49843;BME280;55559;48.898;9.184;2023-02-10T12:58:20;100460.03;;;4.81;60.57
49843;BME280;55559;48.898;9.184;2023-02-10T13:00:52;100468.00;;;5.06;60.30
49843;BME280;55559;48.898;9.184;2023-02-10T13:03:28;100464.94;;;5.18;59.34
49843;BME280;55559;48.898;9.184;2023-02-10T13:06:05;;;;4.91;
49843;BME280;55559;48.898;9.184;2023-02-10T13:08:44;100458.38;;;4.78;58.00